West Mystic, CT

12:39 AM EDT on July 31, 2015 (GMT -0400)
Mystic | | Change Station
CLOSE
Current Station
Personal Weather Station
Location: Groton, CT
Elevation: 154 ft
Nearby Weather Stations

Elev 154 ft 41.36 °N, 71.97 °W | Updated 1 second ago

Overcast
Overcast
72.7 °F
Feels Like 72.7 °F
N
0.0
Wind Variable Wind from SW
Gusts 0.0 mph

Today
High -- | Low -- °F
--% Chance of Precip.
Yesterday
High -- | Low -- °F
Precip. -- in
5:41 AM 8:06 PM
Full, 100% visible
Pressure 29.82 in
Visibility 6.0 miles
Clouds Mostly Cloudy 1200 ft
Overcast 2000 ft
Dew Point 72 °F
Humidity 96%
Rainfall 0.00 in
Snow Depth Not available.
UV 0.0 out of 12
Pollen 6.00 out of 12
Air Quality Not available.
Flu Activity Not available.
SPECI KGON 310416Z AUTO 24006KT 6SM BR BKN012 OVC020 23/22 A2982 RMK AO2 T02280217

More Conditions Fewer Conditions

Pressure 29.82 in
Visibility 6.0 miles
Clouds Mostly Cloudy 1200 ft
Overcast 2000 ft
Dew Point 72 °F
Humidity 96%
Rainfall 0.00 in
Snow Depth Not available.
UV 0.0 out of 12
Pollen 6.00 out of 12
Air Quality Not available.
Flu Activity Not available.
SPECI KGON 310416Z AUTO 24006KT 6SM BR BKN012 OVC020 23/22 A2982 RMK AO2 T02280217

More Conditions Fewer Conditions

10-Day Weather Forecast

×

Almanac

Astronomy

Jul. 31, 2015 Rise Set
Actual Time
Civil Twilight
Nautical Twilight
Astronomical Twilight
Moon
Length of Visible Light
Length of Day
Tomorrow will be .
, % of the Moon is Illuminated

Today's Extremes

State Highs State Lows

Community

WunderPhotos

Upload Photos

1,842,608 photos uploaded!

WunderBlogs® & News

Nearby

Air Quality

  Air Quality AQ Index Pollutant
Not available.

Snow Depth

Station Depth Elevation

Earthquake Activity

City Distance Mag. Time & Date
Minimum magnitude displayed is 2.5.

Coastal Water Temperatures

Place Temperature

Stations

Nearby Weather Stations

Station Location Temp. Windchill Dew Point Humidity Wind Precip. Elev Updated Type